MSC Ludovica — HPAF — position and weather

sailwx.info

Track history (hours):
 
Tides and Currents Weather Stations Pressure Air Temp Water Temp Dewpoint Dewpoint Depression Visibility Wind Speed Wind Dir Waves Ship Positions

MSC Ludovica

Last reported at 2017-Apr-21 00:55 UTC. Time now 2017-May-01 00:28 UTC.
Position S 22°57' W 041°27'.
Warning: this ship's position is 9 days out of date.

Length 301 m; draft 12.4 m.

Type: Ship (hazmat cat A). MMSI: 351248000.

Date/timePositionNaut miles runAvg speedWind from/ knotsBaromVisibWave heightAir tempDewpointWater temp
2017-Apr-21 00:55S 22°57' W 041°27'7018.3
2017-Apr-20 21:07S 23°12' W 042°41'318.3
2017-Apr-20 20:57S 23°12' W 042°44'1018.5
2017-Apr-20 20:25S 23°12' W 042°55'1118.6
2017-Apr-20 19:51S 23°12' W 043°06'176 3.8
2017-Apr-18 21:36S 24°23' W 046°02'214.4
2017-Apr-18 21:30S 24°24' W 046°03'714.2
2017-Apr-18 20:59S 24°25' W 046°11'613.0
2017-Apr-18 20:30S 24°23' W 046°17'714.0
2017-Apr-18 20:00S 24°17' W 046°22'714.5
2017-Apr-18 19:31S 24°10' W 046°24'713.3
2017-Apr-18 19:00S 24°04' W 046°22'4 8.1
2017-Apr-18 18:30S 24°00' W 046°20'4 0.2
2017-Apr-17 22:17S 23°56' W 046°19'2 7.9
2017-Apr-17 22:00S 23°58' W 046°18'3 6.3
2017-Apr-17 21:30S 24°00' W 046°20'510.1
2017-Apr-17 21:00S 24°05' W 046°22'4 8.4
2017-Apr-17 20:30S 24°09' W 046°24'4 8.3
2017-Apr-17 20:00S 24°13' W 046°24'1 3.0
2017-Apr-17 19:30S 24°14' W 046°23'1 1.5
2017-Apr-17 19:00S 24°15' W 046°23'1 1.5
2017-Apr-17 18:30S 24°16' W 046°23'1 2.0
2017-Apr-17 18:00S 24°15' W 046°24'4 7.4
2017-Apr-17 17:30S 24°13' W 046°27'0 0.6
2017-Apr-17 17:00S 24°13' W 046°27'1 1.3
2017-Apr-17 16:30S 24°13' W 046°27'1 1.3
2017-Apr-17 16:00S 24°14' W 046°27'1 1.3
2017-Apr-17 15:30S 24°15' W 046°27'1 1.1
2017-Apr-17 15:00S 24°15' W 046°27'0 0.7
2017-Apr-17 14:30S 24°15' W 046°26'5 4.6
2017-Apr-17 13:30S 24°11' W 046°24'1 1.4
2017-Apr-17 13:01S 24°11' W 046°25'1 1.4
2017-Apr-17 12:30S 24°12' W 046°25'1 1.3
2017-Apr-17 12:00S 24°13' W 046°25'1 2.1
2017-Apr-17 11:30S 24°13' W 046°26'4 8.3
2017-Apr-17 11:00S 24°17' W 046°27'612.8
2017-Apr-17 10:30S 24°23' W 046°30'612.7
2017-Apr-17 10:00S 24°29' W 046°33'612.6
2017-Apr-17 09:30S 24°35' W 046°35'612.7
2017-Apr-17 09:00S 24°41' W 046°38'1112.7
2017-Apr-17 08:07S 24°51' W 046°43'158 3.5
2017-Apr-15 10:48S 26°55' W 048°32'5 5.4
2017-Apr-15 09:51S 26°58' W 048°28'6 6.1
2017-Apr-15 08:51S 27°02' W 048°22'3 6.1
2017-Apr-15 08:20S 27°03' W 048°20'15 7.3
2017-Apr-15 06:14S 27°17' W 048°12'314.3
2017-Apr-15 06:00S 27°20' W 048°11'714.3
2017-Apr-15 05:30S 27°27' W 048°08'714.3
2017-Apr-15 05:00S 27°34' W 048°07'714.2
2017-Apr-15 04:30S 27°41' W 048°04'814.1
2017-Apr-15 03:57S 27°48' W 048°01'  
Track history (hours):
 
Tides and Currents Weather Stations Pressure Air Temp Water Temp Dewpoint Dewpoint Depression Visibility Wind Speed Wind Dir Waves Ship Positions

MSC Ludovica

Last reported at 2017-Apr-21 00:55 UTC. Time now 2017-May-01 00:28 UTC.
Position S 22°57' W 041°27'.
Warning: this ship's position is 9 days out of date.

Length 301 m; draft 12.4 m.

Type: Ship (hazmat cat A). MMSI: 351248000.

Date/timePositionNaut miles runAvg speedWind from/ knotsBaromVisibWave heightAir tempDewpointWater temp
2017-Apr-21 00:55S 22°57' W 041°27'7018.3
2017-Apr-20 21:07S 23°12' W 042°41'318.3
2017-Apr-20 20:57S 23°12' W 042°44'1018.5
2017-Apr-20 20:25S 23°12' W 042°55'1118.6
2017-Apr-20 19:51S 23°12' W 043°06'176 3.8
2017-Apr-18 21:36S 24°23' W 046°02'214.4
2017-Apr-18 21:30S 24°24' W 046°03'714.2
2017-Apr-18 20:59S 24°25' W 046°11'613.0
2017-Apr-18 20:30S 24°23' W 046°17'714.0
2017-Apr-18 20:00S 24°17' W 046°22'714.5
2017-Apr-18 19:31S 24°10' W 046°24'713.3
2017-Apr-18 19:00S 24°04' W 046°22'4 8.1
2017-Apr-18 18:30S 24°00' W 046°20'4 0.2
2017-Apr-17 22:17S 23°56' W 046°19'2 7.9
2017-Apr-17 22:00S 23°58' W 046°18'3 6.3
2017-Apr-17 21:30S 24°00' W 046°20'510.1
2017-Apr-17 21:00S 24°05' W 046°22'4 8.4
2017-Apr-17 20:30S 24°09' W 046°24'4 8.3
2017-Apr-17 20:00S 24°13' W 046°24'1 3.0
2017-Apr-17 19:30S 24°14' W 046°23'1 1.5
2017-Apr-17 19:00S 24°15' W 046°23'1 1.5
2017-Apr-17 18:30S 24°16' W 046°23'1 2.0
2017-Apr-17 18:00S 24°15' W 046°24'4 7.4
2017-Apr-17 17:30S 24°13' W 046°27'0 0.6
2017-Apr-17 17:00S 24°13' W 046°27'1 1.3
2017-Apr-17 16:30S 24°13' W 046°27'1 1.3
2017-Apr-17 16:00S 24°14' W 046°27'1 1.3
2017-Apr-17 15:30S 24°15' W 046°27'1 1.1
2017-Apr-17 15:00S 24°15' W 046°27'0 0.7
2017-Apr-17 14:30S 24°15' W 046°26'5 4.6
2017-Apr-17 13:30S 24°11' W 046°24'1 1.4
2017-Apr-17 13:01S 24°11' W 046°25'1 1.4
2017-Apr-17 12:30S 24°12' W 046°25'1 1.3
2017-Apr-17 12:00S 24°13' W 046°25'1 2.1
2017-Apr-17 11:30S 24°13' W 046°26'4 8.3
2017-Apr-17 11:00S 24°17' W 046°27'612.8
2017-Apr-17 10:30S 24°23' W 046°30'612.7
2017-Apr-17 10:00S 24°29' W 046°33'612.6
2017-Apr-17 09:30S 24°35' W 046°35'612.7
2017-Apr-17 09:00S 24°41' W 046°38'1112.7
2017-Apr-17 08:07S 24°51' W 046°43'158 3.5
2017-Apr-15 10:48S 26°55' W 048°32'5 5.4
2017-Apr-15 09:51S 26°58' W 048°28'6 6.1
2017-Apr-15 08:51S 27°02' W 048°22'3 6.1
2017-Apr-15 08:20S 27°03' W 048°20'15 7.3
2017-Apr-15 06:14S 27°17' W 048°12'314.3
2017-Apr-15 06:00S 27°20' W 048°11'714.3
2017-Apr-15 05:30S 27°27' W 048°08'714.3
2017-Apr-15 05:00S 27°34' W 048°07'714.2
2017-Apr-15 04:30S 27°41' W 048°04'814.1
2017-Apr-15 03:57S 27°48' W 048°01'  

Dump ship's entire track history